Terminal Aerodrome Forecast
Issued by NWS

Home | Current Version | Previous Version | Text Only | Print | Product List | Glossary On
Versions: 1 2 3 4 5 6 7 8 9 10 11 12 13 14 15 16 17 18 19 20
000
FTAK31 PANC 312002 AAA
TAFADQ
TAF AMD
PADQ 312002Z 3120/0118 03024G30KT 3SM -RA BR SCT007 OVC010
     FM010000 05025G34KT 4SM -RA BR BKN005
     FM010600 05015G24KT 5SM -RA BR BKN005=

USA.gov is the U.S. government's official web portal to all federal, state and local government web resources and services.